createdAt,value
2017-07-15T00:01:46.714Z,62.40
2017-07-15T00:04:15.053Z,62.70
2017-07-15T00:06:43.379Z,63.00
2017-07-15T00:09:12.456Z,62.70
2017-07-15T00:11:40.783Z,62.70
2017-07-15T00:14:09.092Z,63.00
2017-07-15T00:16:37.438Z,63.30
2017-07-15T00:19:05.737Z,62.80
2017-07-15T00:21:34.036Z,62.60
2017-07-15T00:24:02.372Z,63.20
2017-07-15T00:26:30.746Z,63.10
2017-07-15T00:28:59.046Z,62.80
2017-07-15T00:31:27.390Z,63.10
2017-07-15T00:33:55.685Z,63.80
2017-07-15T00:36:24.746Z,62.40
2017-07-15T00:38:53.090Z,62.30
2017-07-15T00:41:21.385Z,61.50
2017-07-15T00:43:49.679Z,62.00
2017-07-15T00:46:18.027Z,61.30
2017-07-15T00:48:46.324Z,61.50
2017-07-15T00:51:15.422Z,62.60
2017-07-15T00:53:43.773Z,62.40
2017-07-15T00:56:12.070Z,62.50
2017-07-15T00:58:41.132Z,61.10
2017-07-15T01:04:06.974Z,61.10
2017-07-15T01:06:35.269Z,61.00
2017-07-15T01:09:03.600Z,60.80
2017-07-15T01:11:31.959Z,61.00
2017-07-15T01:14:00.774Z,61.10
2017-07-15T01:16:29.100Z,61.10
2017-07-15T01:18:57.391Z,61.30
2017-07-15T01:21:25.717Z,61.70
2017-07-15T01:23:54.017Z,62.30
2017-07-15T01:26:22.309Z,62.50
2017-07-15T01:28:51.542Z,63.10
2017-07-15T01:31:26.795Z,63.10
2017-07-15T01:33:55.137Z,63.30
2017-07-15T01:36:23.430Z,63.90
2017-07-15T01:38:51.728Z,64.00
2017-07-15T01:41:20.833Z,64.20
2017-07-15T01:43:49.126Z,64.10
2017-07-15T01:46:17.420Z,64.20
2017-07-15T01:48:45.749Z,64.10
2017-07-15T01:51:14.048Z,64.60
2017-07-15T01:53:42.387Z,65.10
2017-07-15T01:56:10.685Z,65.50
2017-07-15T01:58:38.980Z,65.20
2017-07-15T02:01:07.307Z,65.60
2017-07-15T02:03:36.367Z,64.80
2017-07-15T02:06:04.661Z,65.40
2017-07-15T02:08:33.280Z,65.60
2017-07-15T02:11:01.578Z,65.30
2017-07-15T02:13:29.867Z,64.30
2017-07-15T02:15:58.191Z,63.90
2017-07-15T02:18:26.524Z,64.10
2017-07-15T02:20:54.815Z,64.60
2017-07-15T02:23:23.109Z,64.80
2017-07-15T02:25:51.438Z,66.20
2017-07-15T02:28:19.729Z,66.80
2017-07-15T02:30:48.788Z,67.70
2017-07-15T02:33:17.120Z,67.70
2017-07-15T02:35:45.451Z,67.60
2017-07-15T02:38:13.741Z,67.80
2017-07-15T02:40:42.034Z,67.40
2017-07-15T02:43:11.127Z,66.70
2017-07-15T02:45:40.293Z,67.40
2017-07-15T02:48:09.385Z,67.60
2017-07-15T02:50:37.676Z,67.60
2017-07-15T02:53:05.996Z,67.50
2017-07-15T02:55:34.314Z,69.10
2017-07-15T02:58:02.610Z,69.00
2017-07-15T03:00:30.927Z,69.10
2017-07-15T03:02:59.253Z,69.30
2017-07-15T03:05:27.740Z,69.50
2017-07-15T03:07:56.832Z,68.30
2017-07-15T03:10:25.126Z,68.30
2017-07-15T03:12:53.452Z,68.00
2017-07-15T03:15:21.830Z,68.10
2017-07-15T03:17:50.126Z,68.40
2017-07-15T03:20:18.425Z,67.40
2017-07-15T03:22:46.736Z,66.80
2017-07-15T03:25:15.833Z,67.40
2017-07-15T03:27:44.154Z,67.30
2017-07-15T03:30:12.448Z,67.60
2017-07-15T03:32:40.998Z,67.40
2017-07-15T03:35:10.058Z,64.90
2017-07-15T03:37:38.399Z,64.40
2017-07-15T03:40:06.703Z,65.20
2017-07-15T03:42:34.997Z,65.60
2017-07-15T03:45:03.325Z,65.40
2017-07-15T03:47:31.609Z,64.70
2017-07-15T03:49:59.976Z,64.50
2017-07-15T03:52:29.067Z,64.60
2017-07-15T03:54:57.455Z,64.50
2017-07-15T03:57:25.754Z,64.90
2017-07-15T03:59:54.084Z,63.90
2017-07-15T04:02:22.379Z,64.10
2017-07-15T04:04:50.697Z,64.40
2017-07-15T04:07:19.020Z,65.10
2017-07-15T04:09:47.312Z,65.80
2017-07-15T04:12:15.653Z,65.60
2017-07-15T04:14:43.959Z,65.70
2017-07-15T04:17:12.256Z,65.40
2017-07-15T04:19:41.526Z,66.80
2017-07-15T04:22:09.822Z,66.00
2017-07-15T04:24:38.118Z,65.70
2017-07-15T04:27:06.434Z,65.40
2017-07-15T04:29:34.799Z,65.40
2017-07-15T04:32:03.246Z,64.90
2017-07-15T04:34:32.316Z,64.80
2017-07-15T04:37:00.772Z,64.80
2017-07-15T04:39:29.173Z,64.30
2017-07-15T04:41:58.238Z,64.00
2017-07-15T04:44:26.603Z,63.60
2017-07-15T04:46:54.974Z,63.70
2017-07-15T04:52:02.477Z,64.30
2017-07-15T04:54:30.928Z,64.10
2017-07-15T04:57:00.033Z,64.50
2017-07-15T04:59:28.330Z,64.50
2017-07-15T05:01:56.812Z,64.80
2017-07-15T05:04:25.669Z,65.60
2017-07-15T05:06:54.156Z,65.60
2017-07-15T05:09:22.446Z,63.70
2017-07-15T05:11:50.773Z,64.10
2017-07-15T05:14:19.065Z,63.90
2017-07-15T05:16:47.401Z,63.70
2017-07-15T05:19:15.697Z,62.60
2017-07-15T05:21:44.063Z,62.90
2017-07-15T05:24:12.389Z,62.50
2017-07-15T05:26:40.691Z,62.50
2017-07-15T05:29:09.026Z,63.20
2017-07-15T05:31:37.419Z,62.10
2017-07-15T05:34:05.716Z,62.50
2017-07-15T05:36:34.268Z,62.40
2017-07-15T05:39:02.595Z,62.20
2017-07-15T05:41:31.022Z,62.20
2017-07-15T05:43:59.347Z,62.30
2017-07-15T05:46:27.710Z,61.80
2017-07-15T05:48:56.029Z,62.40
2017-07-15T05:51:24.346Z,62.90
2017-07-15T05:53:52.685Z,63.10
2017-07-15T05:56:20.969Z,61.80
2017-07-15T05:58:49.281Z,62.40
2017-07-15T06:01:17.582Z,62.00
2017-07-15T06:03:45.912Z,62.60
2017-07-15T06:06:14.212Z,62.70
2017-07-15T06:08:42.503Z,62.40
2017-07-15T06:11:11.609Z,63.20
2017-07-15T06:13:39.909Z,63.20
2017-07-15T06:16:08.289Z,62.30
2017-07-15T06:18:36.625Z,62.10
2017-07-15T06:21:04.921Z,62.00
2017-07-15T06:23:33.216Z,62.80
2017-07-15T06:26:01.541Z,63.40
2017-07-15T06:28:29.849Z,64.20
2017-07-15T06:30:58.306Z,63.90
2017-07-15T06:33:26.696Z,64.90
2017-07-15T06:35:54.987Z,63.90
2017-07-15T06:38:23.369Z,63.20
2017-07-15T06:40:51.781Z,62.10
2017-07-15T06:43:20.106Z,61.90
2017-07-15T06:45:49.357Z,62.00
2017-07-15T06:48:17.650Z,61.90
2017-07-15T06:50:45.984Z,61.80
2017-07-15T06:53:14.268Z,61.80
2017-07-15T06:55:44.188Z,61.30
2017-07-15T06:58:12.503Z,61.30
2017-07-15T07:00:40.860Z,58.90
2017-07-15T07:03:09.948Z,59.50
2017-07-15T07:05:38.237Z,59.40
2017-07-15T07:08:06.558Z,59.50
2017-07-15T07:10:34.901Z,60.10
2017-07-15T07:13:03.511Z,57.70
2017-07-15T07:15:31.809Z,57.00
2017-07-15T07:18:00.153Z,56.20
2017-07-15T07:20:28.444Z,54.60
2017-07-15T07:22:56.910Z,54.90
2017-07-15T07:25:25.230Z,56.10
2017-07-15T07:27:53.521Z,57.00
2017-07-15T07:30:22.627Z,56.70
2017-07-15T07:32:50.917Z,56.70
2017-07-15T07:35:19.215Z,56.40
2017-07-15T07:37:47.553Z,56.00
2017-07-15T07:40:15.849Z,55.90
2017-07-15T07:42:44.140Z,55.70
2017-07-15T07:45:12.477Z,54.70
2017-07-15T07:47:40.913Z,55.70
2017-07-15T07:50:09.321Z,56.50
2017-07-15T07:52:38.001Z,57.10
2017-07-15T07:55:06.395Z,56.30
2017-07-15T07:57:34.970Z,55.80
2017-07-15T08:00:03.521Z,52.90
2017-07-15T08:02:31.877Z,50.90
2017-07-15T08:05:00.441Z,46.50
2017-07-15T08:07:30.071Z,44.60
2017-07-15T08:09:58.391Z,44.60
2017-07-15T08:12:27.553Z,43.70
2017-07-15T08:14:56.701Z,37.50
2017-07-15T08:17:25.006Z,37.80
2017-07-15T08:19:56.732Z,36.40
2017-07-15T08:22:25.022Z,35.60
2017-07-15T08:24:53.360Z,36.00
2017-07-15T08:27:22.418Z,39.50
2017-07-15T08:29:50.765Z,39.50
2017-07-15T08:32:19.063Z,40.50
2017-07-15T08:34:47.362Z,41.40
